createdAt,value
2017-11-08T00:01:47.563Z,10.90
2017-11-08T00:04:19.148Z,11.57
2017-11-08T00:06:47.368Z,12.00
2017-11-08T00:09:15.080Z,12.70
2017-11-08T00:11:42.587Z,13.33
2017-11-08T00:14:10.052Z,13.23
2017-11-08T00:16:37.671Z,12.63
2017-11-08T00:19:05.180Z,15.10
2017-11-08T00:21:32.614Z,14.30
2017-11-08T00:24:00.087Z,11.80
2017-11-08T00:26:27.628Z,14.33
2017-11-08T00:28:55.060Z,13.27
2017-11-08T00:31:22.482Z,14.17
2017-11-08T00:33:49.911Z,13.67
2017-11-08T00:36:17.461Z,11.32
2017-11-08T00:38:44.913Z,13.47
2017-11-08T00:41:12.369Z,11.80
2017-11-08T00:43:39.796Z,11.43
2017-11-08T00:46:07.231Z,13.20
2017-11-08T00:48:34.752Z,12.03
2017-11-08T00:51:02.504Z,13.83
2017-11-08T00:53:29.959Z,13.63
2017-11-08T00:55:57.392Z,12.37
2017-11-08T00:58:24.876Z,14.60
2017-11-08T01:00:57.983Z,12.97
2017-11-08T01:03:25.492Z,13.67
2017-11-08T01:05:53.080Z,12.43
2017-11-08T01:08:20.500Z,12.73
2017-11-08T01:10:47.967Z,13.37
2017-11-08T01:13:15.393Z,12.80
2017-11-08T01:15:42.824Z,13.30
2017-11-08T01:18:10.261Z,12.87
2017-11-08T01:20:37.814Z,14.60
2017-11-08T01:23:05.247Z,13.47
2017-11-08T01:25:32.664Z,13.50
2017-11-08T01:28:00.183Z,13.83
2017-11-08T01:30:28.323Z,13.30
2017-11-08T01:32:56.016Z,13.77
2017-11-08T01:35:23.472Z,12.73
2017-11-08T01:37:55.336Z,13.63
2017-11-08T01:40:22.764Z,12.30
2017-11-08T01:42:50.196Z,13.73
2017-11-08T01:45:17.909Z,12.60
2017-11-08T01:47:45.344Z,14.40
2017-11-08T01:50:12.769Z,13.07
2017-11-08T01:52:40.209Z,14.37
2017-11-08T01:55:07.644Z,14.57
2017-11-08T01:57:35.061Z,13.03
2017-11-08T02:00:02.502Z,15.10
2017-11-08T02:02:30.721Z,13.50
2017-11-08T02:04:58.156Z,13.03
2017-11-08T02:07:25.575Z,12.40
2017-11-08T02:09:53.012Z,13.20
2017-11-08T02:12:20.543Z,13.80
2017-11-08T02:14:47.984Z,13.67
2017-11-08T02:17:15.412Z,13.43
2017-11-08T02:19:43.832Z,14.50
2017-11-08T02:22:11.256Z,14.33
2017-11-08T02:24:38.744Z,13.80
2017-11-08T02:27:06.137Z,14.23
2017-11-08T02:29:33.588Z,13.40
2017-11-08T02:32:01.020Z,14.43
2017-11-08T02:34:28.573Z,14.97
2017-11-08T02:36:56.033Z,16.60
2017-11-08T02:39:23.488Z,14.40
2017-11-08T02:41:51.153Z,16.10
2017-11-08T02:44:18.644Z,15.83
2017-11-08T02:46:46.163Z,15.87
2017-11-08T02:49:13.621Z,15.52
2017-11-08T02:51:41.104Z,15.67
2017-11-08T02:54:08.501Z,14.80
2017-11-08T02:56:35.935Z,16.10
2017-11-08T02:59:03.360Z,14.50
2017-11-08T03:01:30.793Z,15.07
2017-11-08T03:03:58.216Z,16.63
2017-11-08T03:06:25.676Z,16.00
2017-11-08T03:08:53.856Z,14.90
2017-11-08T03:11:21.280Z,16.73
2017-11-08T03:13:48.724Z,14.10
2017-11-08T03:16:16.161Z,14.77
2017-11-08T03:18:43.588Z,14.73
2017-11-08T03:21:11.008Z,15.10
2017-11-08T03:23:39.208Z,14.80
2017-11-08T03:26:06.696Z,15.00
2017-11-08T03:28:34.141Z,15.10
2017-11-08T03:31:01.573Z,15.60
2017-11-08T03:33:29.064Z,15.27
2017-11-08T03:35:56.693Z,14.10
2017-11-08T03:38:24.243Z,14.27
2017-11-08T03:40:51.668Z,13.43
2017-11-08T03:43:19.191Z,15.07
2017-11-08T03:45:46.624Z,15.90
2017-11-08T03:48:14.044Z,17.27
2017-11-08T03:50:41.556Z,15.43
2017-11-08T03:53:09.013Z,15.10
2017-11-08T03:55:36.444Z,15.67
2017-11-08T03:58:03.859Z,13.60
2017-11-08T04:00:31.300Z,14.40
2017-11-08T04:02:58.740Z,14.80
2017-11-08T04:05:26.214Z,14.87
2017-11-08T04:07:53.668Z,14.47
2017-11-08T04:10:21.125Z,15.23
2017-11-08T04:12:48.568Z,14.63
2017-11-08T04:15:16.055Z,15.80
2017-11-08T04:17:43.480Z,15.33
2017-11-08T04:20:11.037Z,17.13
2017-11-08T04:22:38.468Z,16.20
2017-11-08T04:25:05.897Z,16.17
2017-11-08T04:27:33.354Z,15.30
2017-11-08T04:30:00.776Z,15.17
2017-11-08T04:32:28.310Z,15.93
2017-11-08T04:34:55.732Z,17.00
2017-11-08T04:37:23.159Z,17.50
2017-11-08T04:39:50.688Z,15.67
2017-11-08T04:42:18.142Z,17.30
2017-11-08T04:44:45.566Z,16.90
2017-11-08T04:47:13.052Z,16.00
2017-11-08T04:49:40.517Z,16.90
2017-11-08T04:52:08.275Z,17.77
2017-11-08T04:54:35.696Z,16.53
2017-11-08T04:57:03.119Z,16.40
2017-11-08T04:59:30.561Z,18.50
2017-11-08T05:01:58.002Z,17.80
2017-11-08T05:04:25.536Z,16.20
2017-11-08T05:06:52.965Z,16.67
2017-11-08T05:09:20.400Z,16.90
2017-11-08T05:11:47.889Z,17.50
2017-11-08T05:14:15.376Z,17.07
2017-11-08T05:16:42.808Z,15.97
2017-11-08T05:19:10.253Z,16.25
2017-11-08T05:21:37.751Z,17.90
2017-11-08T05:24:05.207Z,17.00
2017-11-08T05:26:32.660Z,17.17
2017-11-08T05:29:00.092Z,16.37
2017-11-08T05:31:27.516Z,18.00
2017-11-08T05:33:54.977Z,17.17
2017-11-08T05:36:22.404Z,15.83
2017-11-08T05:38:49.856Z,17.90
2017-11-08T05:41:17.267Z,18.17
2017-11-08T05:43:44.693Z,15.50
2017-11-08T05:46:12.133Z,16.87
2017-11-08T05:48:39.586Z,17.63
2017-11-08T05:51:07.036Z,16.17
2017-11-08T05:53:34.460Z,19.20
2017-11-08T05:56:01.889Z,18.67
2017-11-08T05:58:29.320Z,17.13
2017-11-08T06:00:56.743Z,18.90
2017-11-08T06:03:24.176Z,18.50
2017-11-08T06:05:51.596Z,19.43
2017-11-08T06:08:19.032Z,17.60
2017-11-08T06:10:46.449Z,16.80
2017-11-08T06:13:13.964Z,17.30
2017-11-08T06:15:42.166Z,18.30
2017-11-08T06:18:09.593Z,17.30
2017-11-08T06:20:37.017Z,18.33
2017-11-08T06:23:04.448Z,17.20
2017-11-08T06:25:31.880Z,16.83
2017-11-08T06:27:59.317Z,20.57
2017-11-08T06:30:26.748Z,17.97
2017-11-08T06:32:54.179Z,18.00
2017-11-08T06:35:21.634Z,18.20
2017-11-08T06:37:49.056Z,17.17
2017-11-08T06:40:17.573Z,20.40
2017-11-08T06:42:45.224Z,17.70
2017-11-08T06:45:12.668Z,16.67
2017-11-08T06:47:40.080Z,19.47
2017-11-08T06:50:07.515Z,19.20
2017-11-08T06:52:38.716Z,20.97
2017-11-08T06:55:06.309Z,18.20
2017-11-08T06:57:33.727Z,19.40
2017-11-08T07:00:01.164Z,18.00
2017-11-08T07:02:28.586Z,17.90
2017-11-08T07:04:56.033Z,20.23
2017-11-08T07:07:23.452Z,18.30
2017-11-08T07:09:50.880Z,18.73
2017-11-08T07:12:18.320Z,19.87
2017-11-08T07:14:45.740Z,19.07
2017-11-08T07:17:13.176Z,20.50
2017-11-08T07:19:41.360Z,20.90
2017-11-08T07:22:08.796Z,18.53
2017-11-08T07:24:36.983Z,19.57
2017-11-08T07:27:04.416Z,18.97
2017-11-08T07:29:31.848Z,19.60
2017-11-08T07:31:59.283Z,20.13
2017-11-08T07:34:26.712Z,19.12
2017-11-08T07:36:54.139Z,18.33
2017-11-08T07:39:22.320Z,19.83
2017-11-08T07:41:49.759Z,19.15
2017-11-08T07:44:17.184Z,20.07
2017-11-08T07:46:44.616Z,17.53
2017-11-08T07:49:12.044Z,17.43
2017-11-08T07:51:40.252Z,19.97
2017-11-08T07:54:11.628Z,18.27
2017-11-08T07:56:39.056Z,18.70
2017-11-08T07:59:06.489Z,18.73
2017-11-08T08:01:33.911Z,19.00
2017-11-08T08:04:01.340Z,20.13
2017-11-08T08:06:28.763Z,17.53
2017-11-08T08:08:56.197Z,18.13
2017-11-08T08:11:24.384Z,20.00
2017-11-08T08:13:51.884Z,18.70
2017-11-08T08:16:19.308Z,20.00
2017-11-08T08:18:46.740Z,20.23
2017-11-08T08:21:15.835Z,18.40
2017-11-08T08:23:43.273Z,20.13
2017-11-08T08:26:10.692Z,18.30
2017-11-08T08:28:38.137Z,18.40
2017-11-08T08:31:05.564Z,19.00
2017-11-08T08:33:33.757Z,18.30
2017-11-08T08:36:01.180Z,18.03
2017-11-08T08:38:28.636Z,19.30
2017-11-08T08:40:56.070Z,20.13
2017-11-08T08:43:23.493Z,20.17
2017-11-08T08:45:50.929Z,20.57
2017-11-08T08:48:18.352Z,17.33
2017-11-08T08:50:48.588Z,19.27
2017-11-08T08:53:16.779Z,18.57
2017-11-08T08:55:44.200Z,19.47
2017-11-08T08:58:11.620Z,17.87
2017-11-08T09:00:39.056Z,21.17
2017-11-08T09:03:06.479Z,19.60
2017-11-08T09:05:34.684Z,18.90
2017-11-08T09:08:02.109Z,19.60
2017-11-08T09:10:29.523Z,19.73
2017-11-08T09:12:57.079Z,19.73
2017-11-08T09:15:24.496Z,19.40
2017-11-08T09:17:51.932Z,21.40
2017-11-08T09:20:25.956Z,19.70
2017-11-08T09:22:54.310Z,17.40
2017-11-08T09:25:21.728Z,21.67
2017-11-08T09:27:51.023Z,18.90
2017-11-08T09:30:18.443Z,19.57
2017-11-08T09:32:45.887Z,19.63
2017-11-08T09:35:13.388Z,18.80
2017-11-08T09:37:46.523Z,19.00
2017-11-08T09:40:13.961Z,18.80
2017-11-08T09:42:41.593Z,22.47
2017-11-08T09:45:11.919Z,18.70
2017-11-08T09:47:39.504Z,18.17
2017-11-08T09:50:07.040Z,17.43
2017-11-08T09:52:35.524Z,16.40
2017-11-08T09:55:03.052Z,19.70
2017-11-08T09:57:30.509Z,19.37
2017-11-08T09:59:58.092Z,20.97
2017-11-08T10:02:25.521Z,17.03
2017-11-08T10:04:52.956Z,17.80
2017-11-08T10:07:20.484Z,15.77
2017-11-08T10:09:51.756Z,17.90
2017-11-08T10:12:19.412Z,15.27
2017-11-08T10:14:47.019Z,17.07
2017-11-08T10:17:14.588Z,16.50
2017-11-08T10:19:42.024Z,16.30
2017-11-08T10:22:09.441Z,17.30
2017-11-08T10:24:36.871Z,18.17
2017-11-08T10:27:04.292Z,16.80
2017-11-08T10:29:31.873Z,17.50
2017-11-08T10:31:59.328Z,15.50
2017-11-08T10:34:26.760Z,17.03
2017-11-08T10:36:54.233Z,16.20
2017-11-08T10:39:21.690Z,17.70
2017-11-08T10:41:49.125Z,16.60
2017-11-08T10:44:16.513Z,17.50
2017-11-08T10:46:43.937Z,18.40
2017-11-08T10:49:17.101Z,19.73
2017-11-08T10:51:44.781Z,16.70
2017-11-08T10:54:12.238Z,19.27
2017-11-08T10:56:39.688Z,16.47
2017-11-08T10:59:12.817Z,15.90
2017-11-08T11:01:40.253Z,16.97
2017-11-08T11:04:07.893Z,19.00
2017-11-08T11:06:35.353Z,16.37
2017-11-08T11:09:05.573Z,16.90
2017-11-08T11:11:33.001Z,15.97
2017-11-08T11:14:16.089Z,20.30
2017-11-08T11:16:43.612Z,15.73
2017-11-08T11:19:12.827Z,17.80
2017-11-08T11:21:40.369Z,16.63
2017-11-08T11:24:12.705Z,15.67
2017-11-08T11:26:42.045Z,16.50
2017-11-08T11:29:10.157Z,15.70
2017-11-08T11:31:37.877Z,15.77
2017-11-08T11:34:05.330Z,17.20
2017-11-08T11:36:32.786Z,16.10
2017-11-08T11:39:00.245Z,15.77
2017-11-08T11:41:28.498Z,15.33
2017-11-08T11:43:56.086Z,16.03
2017-11-08T11:46:23.514Z,16.77
2017-11-08T11:48:53.757Z,16.67
2017-11-08T11:51:25.993Z,15.50
2017-11-08T11:53:54.189Z,17.20
2017-11-08T11:56:21.661Z,18.17
2017-11-08T11:58:49.121Z,16.57
2017-11-08T12:01:16.541Z,17.00
2017-11-08T12:03:43.966Z,16.67
2017-11-08T12:06:12.415Z,19.10
2017-11-08T12:08:39.866Z,16.20
2017-11-08T12:11:07.300Z,16.03
2017-11-08T12:13:34.720Z,15.20
2017-11-08T12:16:02.256Z,17.80
2017-11-08T12:18:29.691Z,16.67
2017-11-08T12:20:57.157Z,16.90
2017-11-08T12:23:24.609Z,16.70
2017-11-08T12:25:52.041Z,15.27
2017-11-08T12:28:19.465Z,16.10
2017-11-08T12:30:46.979Z,16.40
2017-11-08T12:33:14.436Z,17.20
2017-11-08T12:35:41.895Z,14.87
2017-11-08T12:38:09.313Z,14.60
2017-11-08T12:40:36.806Z,17.17
2017-11-08T12:43:04.229Z,16.37
2017-11-08T12:45:31.664Z,16.00
2017-11-08T12:47:59.865Z,16.90
2017-11-08T12:50:28.070Z,19.50
2017-11-08T12:52:55.601Z,15.80
2017-11-08T12:55:23.033Z,17.40
2017-11-08T12:57:50.533Z,17.10
2017-11-08T13:00:18.610Z,17.60
2017-11-08T13:02:46.992Z,17.87
2017-11-08T13:05:14.416Z,18.70
2017-11-08T13:07:41.901Z,17.47
2017-11-08T13:10:09.357Z,17.10
2017-11-08T13:12:36.789Z,17.10
2017-11-08T13:15:04.986Z,15.30
2017-11-08T13:17:32.423Z,17.30
2017-11-08T13:19:59.845Z,16.37
2017-11-08T13:22:27.276Z,16.63
2017-11-08T13:24:54.721Z,14.03
2017-11-08T13:27:22.163Z,16.60
2017-11-08T13:29:49.596Z,15.10
2017-11-08T13:32:17.033Z,17.60
2017-11-08T13:34:44.537Z,16.53
2017-11-08T13:37:11.989Z,16.10
2017-11-08T13:39:39.454Z,17.30
2017-11-08T13:42:08.797Z,16.27
2017-11-08T13:44:36.229Z,14.90
2017-11-08T13:47:03.661Z,16.13
2017-11-08T13:49:31.115Z,16.10
2017-11-08T13:51:58.540Z,16.53
2017-11-08T13:54:25.977Z,15.27
2017-11-08T13:56:53.489Z,16.77
2017-11-08T13:59:20.928Z,15.90
2017-11-08T14:01:48.401Z,19.77
2017-11-08T14:04:17.749Z,17.47
2017-11-08T14:06:45.176Z,17.40
2017-11-08T14:09:12.793Z,19.17
2017-11-08T14:11:40.314Z,18.50
2017-11-08T14:14:07.753Z,17.50
2017-11-08T14:16:35.181Z,17.33
2017-11-08T14:19:02.613Z,16.00
2017-11-08T14:21:30.046Z,16.30
2017-11-08T14:23:57.469Z,15.33
2017-11-08T14:26:24.906Z,16.63
2017-11-08T14:28:52.573Z,14.60
2017-11-08T14:31:20.009Z,16.80
2017-11-08T14:33:48.569Z,16.90
2017-11-08T14:36:16.781Z,16.10
2017-11-08T14:38:44.210Z,16.10
2017-11-08T14:41:11.695Z,16.43
2017-11-08T14:43:39.156Z,17.27
2017-11-08T14:46:06.585Z,16.70
2017-11-08T14:48:34.089Z,18.30
2017-11-08T14:51:01.497Z,18.10
2017-11-08T14:53:29.698Z,16.30
2017-11-08T14:55:57.256Z,15.87
2017-11-08T14:58:24.692Z,15.87
2017-11-08T15:00:52.212Z,17.70
2017-11-08T15:03:19.625Z,19.27
2017-11-08T15:05:47.046Z,17.20
2017-11-08T15:08:15.255Z,16.07
2017-11-08T15:10:42.732Z,16.90
2017-11-08T15:13:10.190Z,16.40
2017-11-08T15:15:37.933Z,17.50
2017-11-08T15:18:05.702Z,16.80
2017-11-08T15:20:33.121Z,17.93
2017-11-08T15:23:00.558Z,17.97
2017-11-08T15:25:28.264Z,16.30
2017-11-08T15:27:55.689Z,17.53
2017-11-08T15:30:27.820Z,20.85
2017-11-08T15:32:55.267Z,18.33
2017-11-08T15:35:22.716Z,18.70
2017-11-08T15:37:50.165Z,17.07
2017-11-08T15:40:20.401Z,16.77
2017-11-08T15:42:47.910Z,16.10
2017-11-08T15:45:15.397Z,17.17
2017-11-08T15:47:42.854Z,18.47
2017-11-08T15:50:10.309Z,15.50
2017-11-08T15:52:37.743Z,20.50
2017-11-08T15:55:08.010Z,29.00
2017-11-08T15:57:35.441Z,25.23
2017-11-08T16:00:02.926Z,19.30
2017-11-08T16:02:30.336Z,17.83
2017-11-08T16:04:57.777Z,18.73
2017-11-08T16:07:25.198Z,21.10
2017-11-08T16:09:52.639Z,23.43
2017-11-08T16:12:20.121Z,19.43
2017-11-08T16:14:47.945Z,23.37
2017-11-08T16:17:15.386Z,21.13
2017-11-08T16:19:42.808Z,20.43
2017-11-08T16:22:10.237Z,21.40
2017-11-08T16:24:37.669Z,18.87
2017-11-08T16:27:05.221Z,20.10
2017-11-08T16:29:32.650Z,19.80
2017-11-08T16:32:00.093Z,18.00
2017-11-08T16:34:27.600Z,18.30
2017-11-08T16:36:55.049Z,19.27
2017-11-08T16:39:22.465Z,18.03
2017-11-08T16:41:50.661Z,20.00
2017-11-08T16:44:18.084Z,20.67
2017-11-08T16:46:45.613Z,21.00
2017-11-08T16:49:13.047Z,22.47
2017-11-08T16:51:40.634Z,22.60
2017-11-08T16:54:08.179Z,23.63
2017-11-08T16:56:35.592Z,21.23
2017-11-08T16:59:03.021Z,22.23
2017-11-08T17:01:30.530Z,22.40
2017-11-08T17:03:57.987Z,22.93
2017-11-08T17:06:25.443Z,21.20
2017-11-08T17:08:52.876Z,21.07
2017-11-08T17:11:20.304Z,20.37
2017-11-08T17:13:47.741Z,21.77
2017-11-08T17:16:15.163Z,20.50
2017-11-08T17:18:42.608Z,23.10
2017-11-08T17:21:10.089Z,20.10
2017-11-08T17:23:37.654Z,19.27
2017-11-08T17:26:05.066Z,18.47
2017-11-08T17:28:32.553Z,18.70
2017-11-08T17:30:59.975Z,18.80
2017-11-08T17:33:27.462Z,19.57
2017-11-08T17:35:54.918Z,17.43
2017-11-08T17:38:22.345Z,16.73
2017-11-08T17:40:49.778Z,18.30
2017-11-08T17:43:17.286Z,18.60
2017-11-08T17:45:44.717Z,18.00
2017-11-08T17:48:12.145Z,20.07
2017-11-08T17:50:39.579Z,18.57
2017-11-08T17:53:07.118Z,19.33
2017-11-08T17:55:34.880Z,18.87
2017-11-08T17:58:02.305Z,20.90
2017-11-08T18:00:29.738Z,21.70
2017-11-08T18:02:57.169Z,22.90
2017-11-08T18:05:24.597Z,25.10
2017-11-08T18:07:52.028Z,24.87
2017-11-08T18:10:19.472Z,22.50
2017-11-08T18:12:47.665Z,23.13
2017-11-08T18:15:15.089Z,21.27
2017-11-08T18:17:42.521Z,21.70
2017-11-08T18:20:09.953Z,19.67
2017-11-08T18:22:37.403Z,18.83
2017-11-08T18:25:04.865Z,21.10
2017-11-08T18:27:32.310Z,22.33
2017-11-08T18:29:59.785Z,22.83
2017-11-08T18:32:27.333Z,21.83
2017-11-08T18:34:54.762Z,20.90
2017-11-08T18:37:22.201Z,23.83
2017-11-08T18:39:49.702Z,21.67
2017-11-08T18:42:17.141Z,22.33
2017-11-08T18:44:44.617Z,20.93
2017-11-08T18:47:12.053Z,23.73
2017-11-08T18:49:39.478Z,25.57
2017-11-08T18:52:06.905Z,22.13
2017-11-08T18:54:34.329Z,21.30
2017-11-08T18:57:01.777Z,22.80
2017-11-08T18:59:29.256Z,20.83
2017-11-08T19:01:56.681Z,21.63
2017-11-08T19:04:24.262Z,21.23
2017-11-08T19:06:51.729Z,21.70
2017-11-08T19:09:19.169Z,22.30
2017-11-08T19:11:47.429Z,22.63
2017-11-08T19:14:15.018Z,21.97
2017-11-08T19:16:42.452Z,20.70
2017-11-08T19:19:09.882Z,21.90
2017-11-08T19:21:37.312Z,24.90
2017-11-08T19:24:04.835Z,22.67
2017-11-08T19:26:32.254Z,20.90
2017-11-08T19:28:59.691Z,20.03
2017-11-08T19:31:27.181Z,21.60
2017-11-08T19:33:54.664Z,20.43
2017-11-08T19:36:22.094Z,22.27
2017-11-08T19:38:49.540Z,22.73
2017-11-08T19:41:16.960Z,25.10
2017-11-08T19:43:44.418Z,24.40
2017-11-08T19:46:11.820Z,22.57
2017-11-08T19:48:39.401Z,24.10
2017-11-08T19:51:06.857Z,19.90
2017-11-08T19:53:34.319Z,22.07
2017-11-08T19:56:01.801Z,21.27
2017-11-08T19:58:29.226Z,19.60
2017-11-08T20:00:56.680Z,22.00
2017-11-08T20:03:24.104Z,20.40
2017-11-08T20:05:51.545Z,20.77
2017-11-08T20:08:18.971Z,22.87
2017-11-08T20:10:46.417Z,21.97
2017-11-08T20:13:13.861Z,19.83
2017-11-08T20:15:41.404Z,23.70
2017-11-08T20:18:08.877Z,24.27
2017-11-08T20:20:36.841Z,20.37
2017-11-08T20:23:04.276Z,21.63
2017-11-08T20:25:31.861Z,22.27
2017-11-08T20:27:59.329Z,21.90
2017-11-08T20:30:26.954Z,27.10
2017-11-08T20:32:54.445Z,26.40
2017-11-08T20:35:21.893Z,25.27
2017-11-08T20:37:49.465Z,26.47
2017-11-08T20:40:17.083Z,26.23
2017-11-08T20:42:44.545Z,25.33
2017-11-08T20:45:11.973Z,24.10
2017-11-08T20:47:40.205Z,23.37
2017-11-08T20:50:07.830Z,24.17
2017-11-08T20:52:35.413Z,25.93
2017-11-08T20:55:02.832Z,26.67
2017-11-08T20:57:30.326Z,26.23
2017-11-08T20:59:57.749Z,24.77
2017-11-08T21:02:25.240Z,25.60
2017-11-08T21:04:52.674Z,25.40
2017-11-08T21:07:20.151Z,26.60
2017-11-08T21:09:47.608Z,31.57
2017-11-08T21:12:15.040Z,33.30
2017-11-08T21:14:42.524Z,31.37
2017-11-08T21:17:09.977Z,29.57
2017-11-08T21:19:37.433Z,24.60
2017-11-08T21:22:04.861Z,27.23
2017-11-08T21:24:32.349Z,30.07
2017-11-08T21:26:59.780Z,29.43
2017-11-08T21:29:27.265Z,29.13
2017-11-08T21:31:54.677Z,26.83
2017-11-08T21:34:22.173Z,25.37
2017-11-08T21:36:49.593Z,24.13
2017-11-08T21:39:17.037Z,25.10
2017-11-08T21:41:44.461Z,21.43
2017-11-08T21:44:11.998Z,20.13
2017-11-08T21:46:39.539Z,22.50
2017-11-08T21:49:07.219Z,21.87
2017-11-08T21:51:34.664Z,22.10
2017-11-08T21:54:02.137Z,21.53
2017-11-08T21:56:29.892Z,22.90
2017-11-08T21:58:57.313Z,20.27
2017-11-08T22:01:24.797Z,22.80
2017-11-08T22:03:52.220Z,22.17
2017-11-08T22:06:19.717Z,23.83
2017-11-08T22:08:47.141Z,21.90
2017-11-08T22:11:14.589Z,20.80
2017-11-08T22:13:42.019Z,21.83
2017-11-08T22:16:09.540Z,20.80
2017-11-08T22:18:36.971Z,18.97
2017-11-08T22:21:06.293Z,17.63
2017-11-08T22:23:33.729Z,19.60
2017-11-08T22:26:01.234Z,21.67
2017-11-08T22:28:28.662Z,26.00
2017-11-08T22:30:56.119Z,26.57
2017-11-08T22:33:23.549Z,27.40
2017-11-08T22:35:51.033Z,25.07
2017-11-08T22:38:18.465Z,24.57
2017-11-08T22:40:45.889Z,21.73
2017-11-08T22:43:13.405Z,23.30
2017-11-08T22:45:40.826Z,22.33
2017-11-08T22:48:08.317Z,22.20
2017-11-08T22:50:35.773Z,19.90
2017-11-08T22:53:03.221Z,18.90
2017-11-08T22:55:30.654Z,16.60
2017-11-08T22:57:58.080Z,16.63
2017-11-08T23:00:25.505Z,17.30
2017-11-08T23:02:52.966Z,18.33
2017-11-08T23:05:20.417Z,18.57
2017-11-08T23:07:47.865Z,19.10
2017-11-08T23:10:15.357Z,17.90
2017-11-08T23:12:42.877Z,18.57
2017-11-08T23:15:10.316Z,18.20
2017-11-08T23:17:37.732Z,19.00
2017-11-08T23:20:05.166Z,19.30
2017-11-08T23:22:32.605Z,18.73
2017-11-08T23:25:00.164Z,18.50
2017-11-08T23:27:27.789Z,15.57
2017-11-08T23:29:55.275Z,13.80
2017-11-08T23:32:22.697Z,13.83
2017-11-08T23:34:51.209Z,14.23
2017-11-08T23:37:18.637Z,13.40
2017-11-08T23:39:46.433Z,13.83
2017-11-08T23:42:13.892Z,13.67
2017-11-08T23:44:41.307Z,14.40
2017-11-08T23:47:08.806Z,13.47
2017-11-08T23:49:36.562Z,13.07
2017-11-08T23:52:04.018Z,13.67
2017-11-08T23:54:34.340Z,14.23
2017-11-08T23:57:01.880Z,11.60
2017-11-08T23:59:29.463Z,14.23
